sensor_id;sensor_type;location;lat;lon;timestamp;pressure;altitude;pressure_sealevel;temperature;humidity
20256;BME280;10286;59.364;18.016;2022-09-02T00:01:59;101991.34;;;10.88;100.00
20256;BME280;10286;59.364;18.016;2022-09-02T00:07:37;101999.25;;;10.76;100.00
20256;BME280;10286;59.364;18.016;2022-09-02T00:10:20;102003.31;;;10.67;100.00
20256;BME280;10286;59.364;18.016;2022-09-02T00:12:53;101999.94;;;10.65;100.00
20256;BME280;10286;59.364;18.016;2022-09-02T00:18:38;102004.88;;;10.43;100.00
20256;BME280;10286;59.364;18.016;2022-09-02T00:21:06;101998.69;;;10.30;100.00
20256;BME280;10286;59.364;18.016;2022-09-02T00:23:48;101998.44;;;10.21;100.00
20256;BME280;10286;59.364;18.016;2022-09-02T00:26:26;102000.88;;;10.10;100.00
20256;BME280;10286;59.364;18.016;2022-09-02T00:28:54;102002.09;;;10.05;100.00
20256;BME280;10286;59.364;18.016;2022-09-02T00:31:25;102004.94;;;10.02;100.00
20256;BME280;10286;59.364;18.016;2022-09-02T00:37:01;101999.72;;;9.86;100.00
20256;BME280;10286;59.364;18.016;2022-09-02T00:39:29;101997.47;;;9.80;100.00
20256;BME280;10286;59.364;18.016;2022-09-02T00:41:59;101999.31;;;9.78;100.00
20256;BME280;10286;59.364;18.016;2022-09-02T00:47:34;102005.53;;;9.77;100.00
20256;BME280;10286;59.364;18.016;2022-09-02T00:50:08;101995.31;;;9.73;100.00
20256;BME280;10286;59.364;18.016;2022-09-02T00:52:49;101999.06;;;9.69;100.00
20256;BME280;10286;59.364;18.016;2022-09-02T00:58:25;102002.47;;;9.71;100.00
20256;BME280;10286;59.364;18.016;2022-09-02T01:03:49;101998.56;;;9.76;100.00
20256;BME280;10286;59.364;18.016;2022-09-02T01:06:21;101997.63;;;9.77;100.00
20256;BME280;10286;59.364;18.016;2022-09-02T01:11:47;101999.72;;;9.72;100.00
20256;BME280;10286;59.364;18.016;2022-09-02T01:14:19;101997.81;;;9.74;100.00
20256;BME280;10286;59.364;18.016;2022-09-02T01:16:52;102009.13;;;9.76;100.00
20256;BME280;10286;59.364;18.016;2022-09-02T01:19:24;102005.91;;;9.71;100.00
20256;BME280;10286;59.364;18.016;2022-09-02T01:24:47;102006.19;;;9.67;100.00
20256;BME280;10286;59.364;18.016;2022-09-02T01:27:19;101995.84;;;9.64;100.00
20256;BME280;10286;59.364;18.016;2022-09-02T01:29:49;102000.28;;;9.63;100.00
20256;BME280;10286;59.364;18.016;2022-09-02T01:32:17;101995.00;;;9.63;100.00
20256;BME280;10286;59.364;18.016;2022-09-02T01:34:47;102005.56;;;9.63;100.00
20256;BME280;10286;59.364;18.016;2022-09-02T01:37:19;102001.78;;;9.67;100.00
20256;BME280;10286;59.364;18.016;2022-09-02T01:39:51;102001.59;;;9.70;100.00
20256;BME280;10286;59.364;18.016;2022-09-02T01:45:32;102004.97;;;9.72;100.00
20256;BME280;10286;59.364;18.016;2022-09-02T01:48:00;102007.81;;;9.69;100.00
20256;BME280;10286;59.364;18.016;2022-09-02T01:56:59;102006.75;;;9.58;100.00
20256;BME280;10286;59.364;18.016;2022-09-02T01:59:30;102005.44;;;9.51;100.00
20256;BME280;10286;59.364;18.016;2022-09-02T02:02:13;102012.59;;;9.49;100.00
20256;BME280;10286;59.364;18.016;2022-09-02T02:04:46;102004.56;;;9.50;100.00
20256;BME280;10286;59.364;18.016;2022-09-02T02:07:14;102000.34;;;9.48;100.00
20256;BME280;10286;59.364;18.016;2022-09-02T02:09:45;102006.28;;;9.51;100.00
20256;BME280;10286;59.364;18.016;2022-09-02T02:15:20;102006.09;;;9.54;100.00
20256;BME280;10286;59.364;18.016;2022-09-02T02:17:52;102010.91;;;9.62;100.00
20256;BME280;10286;59.364;18.016;2022-09-02T02:23:26;102018.28;;;9.71;100.00
20256;BME280;10286;59.364;18.016;2022-09-02T02:25:58;102013.84;;;9.71;100.00
20256;BME280;10286;59.364;18.016;2022-09-02T02:31:36;102026.63;;;9.77;100.00
20256;BME280;10286;59.364;18.016;2022-09-02T02:34:08;102027.31;;;9.81;100.00
20256;BME280;10286;59.364;18.016;2022-09-02T02:36:39;102028.19;;;9.81;100.00
20256;BME280;10286;59.364;18.016;2022-09-02T02:39:10;102023.94;;;9.79;100.00
20256;BME280;10286;59.364;18.016;2022-09-02T02:53:57;102032.94;;;9.61;100.00
20256;BME280;10286;59.364;18.016;2022-09-02T02:59:31;102038.84;;;9.50;100.00
20256;BME280;10286;59.364;18.016;2022-09-02T03:02:01;102041.75;;;9.46;100.00
20256;BME280;10286;59.364;18.016;2022-09-02T03:04:42;102048.31;;;9.39;100.00
20256;BME280;10286;59.364;18.016;2022-09-02T03:07:18;102047.81;;;9.32;100.00
20256;BME280;10286;59.364;18.016;2022-09-02T03:12:51;102049.88;;;9.27;100.00
20256;BME280;10286;59.364;18.016;2022-09-02T03:15:19;102053.53;;;9.25;100.00
20256;BME280;10286;59.364;18.016;2022-09-02T03:17:48;102048.44;;;9.22;100.00
20256;BME280;10286;59.364;18.016;2022-09-02T03:29:25;102051.81;;;9.10;100.00
20256;BME280;10286;59.364;18.016;2022-09-02T03:31:53;102053.94;;;9.03;100.00
20256;BME280;10286;59.364;18.016;2022-09-02T03:40:33;102051.84;;;8.94;100.00
20256;BME280;10286;59.364;18.016;2022-09-02T03:46:12;102054.91;;;8.87;100.00
20256;BME280;10286;59.364;18.016;2022-09-02T03:51:45;102068.88;;;8.87;100.00
20256;BME280;10286;59.364;18.016;2022-09-02T04:00:31;102062.34;;;8.79;100.00
20256;BME280;10286;59.364;18.016;2022-09-02T04:03:21;102064.91;;;8.80;100.00
20256;BME280;10286;59.364;18.016;2022-09-02T04:08:53;102059.13;;;8.89;100.00
20256;BME280;10286;59.364;18.016;2022-09-02T04:11:27;102058.28;;;8.89;100.00
20256;BME280;10286;59.364;18.016;2022-09-02T04:20:12;102075.50;;;8.79;100.00
20256;BME280;10286;59.364;18.016;2022-09-02T04:22:43;102073.91;;;8.76;100.00
20256;BME280;10286;59.364;18.016;2022-09-02T04:28:20;102074.50;;;8.81;100.00
20256;BME280;10286;59.364;18.016;2022-09-02T04:31:03;102069.81;;;8.86;100.00
20256;BME280;10286;59.364;18.016;2022-09-02T04:33:53;102072.72;;;8.82;100.00
20256;BME280;10286;59.364;18.016;2022-09-02T04:36:25;102071.81;;;8.83;100.00
20256;BME280;10286;59.364;18.016;2022-09-02T04:41:42;102075.28;;;8.83;100.00
20256;BME280;10286;59.364;18.016;2022-09-02T04:44:14;102077.06;;;8.83;100.00
20256;BME280;10286;59.364;18.016;2022-09-02T04:46:44;102079.69;;;8.83;100.00
20256;BME280;10286;59.364;18.016;2022-09-02T04:49:14;102087.16;;;8.90;100.00
20256;BME280;10286;59.364;18.016;2022-09-02T04:51:49;102083.25;;;8.97;100.00
20256;BME280;10286;59.364;18.016;2022-09-02T04:54:19;102083.72;;;9.04;100.00
20256;BME280;10286;59.364;18.016;2022-09-02T04:56:51;102081.53;;;9.12;100.00
20256;BME280;10286;59.364;18.016;2022-09-02T04:59:21;102081.19;;;9.18;100.00
20256;BME280;10286;59.364;18.016;2022-09-02T05:01:54;102085.44;;;9.20;100.00
20256;BME280;10286;59.364;18.016;2022-09-02T05:04:21;102091.53;;;9.21;100.00
20256;BME280;10286;59.364;18.016;2022-09-02T05:06:53;102084.25;;;9.26;100.00
20256;BME280;10286;59.364;18.016;2022-09-02T05:09:25;102078.44;;;9.35;100.00
20256;BME280;10286;59.364;18.016;2022-09-02T05:11:57;102078.06;;;9.41;100.00
20256;BME280;10286;59.364;18.016;2022-09-02T05:14:28;102081.13;;;9.49;100.00
20256;BME280;10286;59.364;18.016;2022-09-02T05:17:03;102079.91;;;9.54;100.00
20256;BME280;10286;59.364;18.016;2022-09-02T05:19:35;102079.38;;;9.63;100.00
20256;BME280;10286;59.364;18.016;2022-09-02T05:22:07;102075.06;;;9.76;100.00
20256;BME280;10286;59.364;18.016;2022-09-02T05:24:37;102077.16;;;9.85;100.00
20256;BME280;10286;59.364;18.016;2022-09-02T05:27:04;102070.84;;;9.88;100.00
20256;BME280;10286;59.364;18.016;2022-09-02T05:29:37;102078.97;;;9.99;100.00
20256;BME280;10286;59.364;18.016;2022-09-02T05:32:07;102067.31;;;10.03;100.00
20256;BME280;10286;59.364;18.016;2022-09-02T05:34:40;102071.25;;;10.10;100.00
20256;BME280;10286;59.364;18.016;2022-09-02T05:37:13;102069.03;;;10.18;100.00
20256;BME280;10286;59.364;18.016;2022-09-02T05:39:40;102070.53;;;10.21;100.00
20256;BME280;10286;59.364;18.016;2022-09-02T05:42:14;102075.41;;;10.27;100.00
20256;BME280;10286;59.364;18.016;2022-09-02T05:44:55;102065.44;;;10.32;100.00
20256;BME280;10286;59.364;18.016;2022-09-02T05:47:30;102072.88;;;10.40;100.00
20256;BME280;10286;59.364;18.016;2022-09-02T05:50:04;102075.97;;;10.46;100.00
20256;BME280;10286;59.364;18.016;2022-09-02T05:52:37;102081.94;;;10.50;100.00
20256;BME280;10286;59.364;18.016;2022-09-02T05:55:04;102077.88;;;10.58;100.00
20256;BME280;10286;59.364;18.016;2022-09-02T05:57:39;102075.78;;;10.63;100.00
20256;BME280;10286;59.364;18.016;2022-09-02T06:00:22;102082.16;;;10.73;100.00
20256;BME280;10286;59.364;18.016;2022-09-02T06:03:01;102066.78;;;10.80;100.00
20256;BME280;10286;59.364;18.016;2022-09-02T06:05:33;102075.34;;;10.83;100.00
20256;BME280;10286;59.364;18.016;2022-09-02T06:08:18;102067.22;;;10.86;100.00
20256;BME280;10286;59.364;18.016;2022-09-02T06:16:30;102073.72;;;11.21;100.00
20256;BME280;10286;59.364;18.016;2022-09-02T06:19:02;102062.53;;;11.30;100.00
20256;BME280;10286;59.364;18.016;2022-09-02T06:21:32;102066.47;;;11.37;100.00
20256;BME280;10286;59.364;18.016;2022-09-02T06:24:06;102071.16;;;11.46;100.00
20256;BME280;10286;59.364;18.016;2022-09-02T06:26:37;102071.75;;;11.64;100.00
20256;BME280;10286;59.364;18.016;2022-09-02T06:29:13;102064.16;;;11.72;100.00
20256;BME280;10286;59.364;18.016;2022-09-02T06:31:40;102076.09;;;11.89;99.58
20256;BME280;10286;59.364;18.016;2022-09-02T06:34:16;102075.38;;;12.00;98.12
20256;BME280;10286;59.364;18.016;2022-09-02T06:36:44;102066.28;;;12.04;97.26
20256;BME280;10286;59.364;18.016;2022-09-02T06:39:19;102076.22;;;12.13;97.46
20256;BME280;10286;59.364;18.016;2022-09-02T06:41:54;102078.22;;;12.22;97.89
20256;BME280;10286;59.364;18.016;2022-09-02T06:44:28;102079.59;;;12.40;98.14
20256;BME280;10286;59.364;18.016;2022-09-02T06:46:59;102080.72;;;12.61;97.10
20256;BME280;10286;59.364;18.016;2022-09-02T06:49:33;102079.91;;;12.84;95.18
20256;BME280;10286;59.364;18.016;2022-09-02T06:52:06;102084.88;;;13.01;95.91
20256;BME280;10286;59.364;18.016;2022-09-02T06:54:43;102083.31;;;13.22;93.70
20256;BME280;10286;59.364;18.016;2022-09-02T06:57:12;102080.88;;;13.76;90.81
20256;BME280;10286;59.364;18.016;2022-09-02T06:59:45;102089.84;;;16.31;79.22
20256;BME280;10286;59.364;18.016;2022-09-02T07:02:15;102081.38;;;18.92;67.65
20256;BME280;10286;59.364;18.016;2022-09-02T07:04:49;102087.28;;;19.74;60.71
20256;BME280;10286;59.364;18.016;2022-09-02T07:07:36;102080.88;;;20.69;56.05
20256;BME280;10286;59.364;18.016;2022-09-02T07:10:06;102083.66;;;20.85;52.92
20256;BME280;10286;59.364;18.016;2022-09-02T07:12:45;102085.88;;;20.97;51.98
20256;BME280;10286;59.364;18.016;2022-09-02T07:15:18;102087.84;;;21.85;48.01
20256;BME280;10286;59.364;18.016;2022-09-02T07:20:32;102077.25;;;22.07;45.41
20256;BME280;10286;59.364;18.016;2022-09-02T07:23:11;102078.94;;;22.08;45.22
20256;BME280;10286;59.364;18.016;2022-09-02T07:25:41;102075.25;;;21.93;45.71
20256;BME280;10286;59.364;18.016;2022-09-02T07:28:13;102078.03;;;22.32;44.91
20256;BME280;10286;59.364;18.016;2022-09-02T07:30:45;102079.28;;;23.14;43.85
20256;BME280;10286;59.364;18.016;2022-09-02T07:33:23;102079.94;;;23.16;43.05
20256;BME280;10286;59.364;18.016;2022-09-02T07:35:53;102085.63;;;23.66;42.90
20256;BME280;10286;59.364;18.016;2022-09-02T07:41:08;102084.44;;;23.68;41.71
20256;BME280;10286;59.364;18.016;2022-09-02T07:43:37;102082.38;;;23.70;42.37
20256;BME280;10286;59.364;18.016;2022-09-02T07:46:10;102075.63;;;24.11;40.90
20256;BME280;10286;59.364;18.016;2022-09-02T07:48:40;102079.81;;;24.14;41.01
20256;BME280;10286;59.364;18.016;2022-09-02T07:51:10;102077.75;;;24.01;41.02
20256;BME280;10286;59.364;18.016;2022-09-02T07:53:40;102082.97;;;24.54;39.79
20256;BME280;10286;59.364;18.016;2022-09-02T07:56:09;102093.63;;;24.91;38.28
20256;BME280;10286;59.364;18.016;2022-09-02T08:01:21;102094.81;;;24.45;38.48
20256;BME280;10286;59.364;18.016;2022-09-02T08:03:50;102090.19;;;23.88;39.18
20256;BME280;10286;59.364;18.016;2022-09-02T08:06:20;102093.13;;;23.56;39.86
20256;BME280;10286;59.364;18.016;2022-09-02T08:08:51;102091.63;;;23.53;40.05
20256;BME280;10286;59.364;18.016;2022-09-02T08:11:25;102094.41;;;24.05;37.75
20256;BME280;10286;59.364;18.016;2022-09-02T08:13:59;102101.97;;;25.25;36.23
20256;BME280;10286;59.364;18.016;2022-09-02T08:16:33;102092.13;;;24.88;36.51
20256;BME280;10286;59.364;18.016;2022-09-02T08:19:04;102088.66;;;23.18;40.64
20256;BME280;10286;59.364;18.016;2022-09-02T08:21:34;102093.72;;;22.12;42.92
20256;BME280;10286;59.364;18.016;2022-09-02T08:24:06;102106.13;;;22.91;42.06
20256;BME280;10286;59.364;18.016;2022-09-02T08:26:51;102097.84;;;23.99;40.26
20256;BME280;10286;59.364;18.016;2022-09-02T08:29:18;102107.72;;;24.72;37.81
20256;BME280;10286;59.364;18.016;2022-09-02T08:31:48;102102.69;;;24.83;37.26
20256;BME280;10286;59.364;18.016;2022-09-02T08:34:20;102092.28;;;25.16;36.13
20256;BME280;10286;59.364;18.016;2022-09-02T08:36:58;102088.59;;;25.80;34.82
20256;BME280;10286;59.364;18.016;2022-09-02T08:39:44;102093.91;;;24.96;35.28
20256;BME280;10286;59.364;18.016;2022-09-02T08:42:17;102096.81;;;25.15;35.72
20256;BME280;10286;59.364;18.016;2022-09-02T08:44:50;102094.19;;;25.57;34.51
20256;BME280;10286;59.364;18.016;2022-09-02T08:47:23;102093.31;;;25.92;32.99
20256;BME280;10286;59.364;18.016;2022-09-02T08:50:05;102094.25;;;26.06;33.71
20256;BME280;10286;59.364;18.016;2022-09-02T08:52:40;102081.34;;;26.08;33.22
20256;BME280;10286;59.364;18.016;2022-09-02T08:55:34;102085.50;;;25.83;33.94
20256;BME280;10286;59.364;18.016;2022-09-02T08:58:06;102084.75;;;26.16;32.49
20256;BME280;10286;59.364;18.016;2022-09-02T09:00:41;102083.69;;;25.90;33.11
20256;BME280;10286;59.364;18.016;2022-09-02T09:03:21;102078.84;;;26.06;33.09
20256;BME280;10286;59.364;18.016;2022-09-02T09:05:59;102083.03;;;25.25;33.34
20256;BME280;10286;59.364;18.016;2022-09-02T09:08:34;102076.28;;;25.98;33.11
20256;BME280;10286;59.364;18.016;2022-09-02T09:11:14;102085.25;;;25.78;33.52
20256;BME280;10286;59.364;18.016;2022-09-02T09:14:00;102083.50;;;25.91;32.97
20256;BME280;10286;59.364;18.016;2022-09-02T09:16:36;102085.25;;;23.69;36.96
20256;BME280;10286;59.364;18.016;2022-09-02T09:19:15;102087.50;;;25.32;34.47
20256;BME280;10286;59.364;18.016;2022-09-02T09:21:46;102077.09;;;23.99;36.84
20256;BME280;10286;59.364;18.016;2022-09-02T09:24:23;102078.53;;;24.82;35.55
20256;BME280;10286;59.364;18.016;2022-09-02T09:27:07;102079.66;;;24.87;35.30
20256;BME280;10286;59.364;18.016;2022-09-02T09:29:47;102079.88;;;25.07;36.25
20256;BME280;10286;59.364;18.016;2022-09-02T09:32:24;102084.53;;;25.69;34.06
20256;BME280;10286;59.364;18.016;2022-09-02T09:35:04;102077.06;;;23.85;37.66
20256;BME280;10286;59.364;18.016;2022-09-02T09:37:38;102073.41;;;23.78;37.22
20256;BME280;10286;59.364;18.016;2022-09-02T09:40:28;102077.94;;;22.09;41.54
20256;BME280;10286;59.364;18.016;2022-09-02T09:42:56;102088.69;;;20.55;44.42
20256;BME280;10286;59.364;18.016;2022-09-02T09:48:20;102069.84;;;18.91;49.34
20256;BME280;10286;59.364;18.016;2022-09-02T09:51:11;102078.28;;;18.42;51.84
20256;BME280;10286;59.364;18.016;2022-09-02T09:53:42;102086.53;;;17.74;54.02
20256;BME280;10286;59.364;18.016;2022-09-02T09:58:54;102091.44;;;17.22;56.38
20256;BME280;10286;59.364;18.016;2022-09-02T10:01:26;102090.88;;;17.09;57.79
20256;BME280;10286;59.364;18.016;2022-09-02T10:03:57;102089.75;;;17.21;57.78
20256;BME280;10286;59.364;18.016;2022-09-02T10:09:28;102092.84;;;17.17;57.27
20256;BME280;10286;59.364;18.016;2022-09-02T10:11:59;102089.59;;;17.04;57.02
20256;BME280;10286;59.364;18.016;2022-09-02T10:14:30;102093.34;;;16.82;58.70
20256;BME280;10286;59.364;18.016;2022-09-02T10:17:00;102097.50;;;19.96;49.62
20256;BME280;10286;59.364;18.016;2022-09-02T10:19:36;102091.22;;;21.79;44.48
20256;BME280;10286;59.364;18.016;2022-09-02T10:22:13;102089.25;;;22.67;41.59
20256;BME280;10286;59.364;18.016;2022-09-02T10:24:47;102083.50;;;22.70;40.60
20256;BME280;10286;59.364;18.016;2022-09-02T10:27:23;102080.59;;;22.17;42.63
20256;BME280;10286;59.364;18.016;2022-09-02T10:30:07;102085.00;;;21.86;42.98
20256;BME280;10286;59.364;18.016;2022-09-02T10:32:47;102081.13;;;22.13;41.72
20256;BME280;10286;59.364;18.016;2022-09-02T10:35:31;102085.75;;;20.73;42.82
20256;BME280;10286;59.364;18.016;2022-09-02T10:38:15;102082.44;;;22.09;42.76
20256;BME280;10286;59.364;18.016;2022-09-02T10:40:49;102083.69;;;20.26;44.56
20256;BME280;10286;59.364;18.016;2022-09-02T10:43:31;102091.03;;;19.02;49.34
20256;BME280;10286;59.364;18.016;2022-09-02T10:46:20;102094.28;;;18.52;53.95
20256;BME280;10286;59.364;18.016;2022-09-02T10:48:53;102101.47;;;17.48;61.63
20256;BME280;10286;59.364;18.016;2022-09-02T10:51:29;102096.31;;;16.98;66.27
20256;BME280;10286;59.364;18.016;2022-09-02T10:54:12;102101.28;;;16.63;70.72
20256;BME280;10286;59.364;18.016;2022-09-02T10:56:58;102101.97;;;16.35;74.55
20256;BME280;10286;59.364;18.016;2022-09-02T10:59:39;102100.34;;;16.03;77.16
20256;BME280;10286;59.364;18.016;2022-09-02T11:02:11;102101.19;;;16.03;80.44
20256;BME280;10286;59.364;18.016;2022-09-02T11:04:47;102101.94;;;17.05;75.99
20256;BME280;10286;59.364;18.016;2022-09-02T11:07:23;102098.47;;;17.99;68.89
20256;BME280;10286;59.364;18.016;2022-09-02T11:09:56;102106.03;;;18.68;65.19
20256;BME280;10286;59.364;18.016;2022-09-02T11:12:33;102099.16;;;18.10;67.41
20256;BME280;10286;59.364;18.016;2022-09-02T11:15:08;102101.47;;;17.48;63.94
20256;BME280;10286;59.364;18.016;2022-09-02T11:17:41;102105.28;;;17.36;71.68
20256;BME280;10286;59.364;18.016;2022-09-02T11:20:20;102106.44;;;17.04;72.15
20256;BME280;10286;59.364;18.016;2022-09-02T11:23:00;102114.59;;;16.63;70.00
20256;BME280;10286;59.364;18.016;2022-09-02T11:25:43;102107.94;;;16.48;75.95
20256;BME280;10286;59.364;18.016;2022-09-02T11:28:24;102115.34;;;16.75;77.28
20256;BME280;10286;59.364;18.016;2022-09-02T11:31:06;102110.44;;;18.04;73.28
20256;BME280;10286;59.364;18.016;2022-09-02T11:33:50;102116.16;;;19.28;70.76
20256;BME280;10286;59.364;18.016;2022-09-02T11:36:20;102106.47;;;20.22;58.19
20256;BME280;10286;59.364;18.016;2022-09-02T11:38:52;102115.06;;;20.92;57.29
20256;BME280;10286;59.364;18.016;2022-09-02T11:41:33;102111.47;;;21.33;51.69
20256;BME280;10286;59.364;18.016;2022-09-02T11:44:12;102117.00;;;20.82;56.46
20256;BME280;10286;59.364;18.016;2022-09-02T11:46:51;102110.84;;;21.47;55.13
20256;BME280;10286;59.364;18.016;2022-09-02T11:49:38;102109.59;;;21.26;53.37
20256;BME280;10286;59.364;18.016;2022-09-02T11:52:19;102104.53;;;20.73;57.10
20256;BME280;10286;59.364;18.016;2022-09-02T11:55:02;102106.91;;;21.18;54.48
20256;BME280;10286;59.364;18.016;2022-09-02T11:57:34;102098.97;;;21.74;49.48
20256;BME280;10286;59.364;18.016;2022-09-02T12:00:10;102096.44;;;21.80;46.08
20256;BME280;10286;59.364;18.016;2022-09-02T12:02:44;102091.53;;;22.08;48.13
20256;BME280;10286;59.364;18.016;2022-09-02T12:08:08;102089.19;;;20.83;53.06
20256;BME280;10286;59.364;18.016;2022-09-02T12:11:01;102090.66;;;20.53;48.32
20256;BME280;10286;59.364;18.016;2022-09-02T12:13:38;102090.34;;;21.54;49.72
20256;BME280;10286;59.364;18.016;2022-09-02T12:24:39;102105.63;;;19.87;51.22
20256;BME280;10286;59.364;18.016;2022-09-02T12:30:10;102103.56;;;17.64;59.96
20256;BME280;10286;59.364;18.016;2022-09-02T12:35:32;102115.41;;;16.34;68.16
20256;BME280;10286;59.364;18.016;2022-09-02T12:40:52;102109.66;;;15.25;69.46
20256;BME280;10286;59.364;18.016;2022-09-02T12:43:25;102110.28;;;15.07;72.31
20256;BME280;10286;59.364;18.016;2022-09-02T12:46:12;102110.44;;;15.05;70.93
20256;BME280;10286;59.364;18.016;2022-09-02T12:48:51;102105.66;;;15.20;70.47
20256;BME280;10286;59.364;18.016;2022-09-02T12:54:29;102102.56;;;15.98;69.62
20256;BME280;10286;59.364;18.016;2022-09-02T12:57:02;102107.50;;;17.69;60.81
20256;BME280;10286;59.364;18.016;2022-09-02T12:59:34;102104.19;;;18.69;56.06
20256;BME280;10286;59.364;18.016;2022-09-02T13:10:40;102097.75;;;20.54;47.89
20256;BME280;10286;59.364;18.016;2022-09-02T13:16:11;102090.66;;;19.59;52.91
20256;BME280;10286;59.364;18.016;2022-09-02T13:18:46;102086.94;;;19.52;51.18
20256;BME280;10286;59.364;18.016;2022-09-02T13:27:32;102082.69;;;19.49;54.19
20256;BME280;10286;59.364;18.016;2022-09-02T13:30:15;102092.88;;;19.28;56.07
20256;BME280;10286;59.364;18.016;2022-09-02T13:32:54;102090.66;;;19.59;53.62
20256;BME280;10286;59.364;18.016;2022-09-02T13:35:29;102079.50;;;19.63;50.38
20256;BME280;10286;59.364;18.016;2022-09-02T13:40:53;102085.34;;;20.02;52.11
20256;BME280;10286;59.364;18.016;2022-09-02T13:43:25;102077.44;;;19.22;54.14
20256;BME280;10286;59.364;18.016;2022-09-02T13:46:03;102078.97;;;18.98;54.21
20256;BME280;10286;59.364;18.016;2022-09-02T13:48:37;102073.63;;;18.71;57.24
20256;BME280;10286;59.364;18.016;2022-09-02T13:51:10;102074.69;;;18.15;58.07
20256;BME280;10286;59.364;18.016;2022-09-02T13:56:32;102080.50;;;17.25;60.64
20256;BME280;10286;59.364;18.016;2022-09-02T14:01:50;102073.06;;;16.70;64.59
20256;BME280;10286;59.364;18.016;2022-09-02T14:04:23;102074.25;;;16.47;64.59
20256;BME280;10286;59.364;18.016;2022-09-02T14:07:00;102070.75;;;16.26;65.90
20256;BME280;10286;59.364;18.016;2022-09-02T14:09:37;102076.63;;;16.20;66.51
20256;BME280;10286;59.364;18.016;2022-09-02T14:12:16;102076.38;;;16.03;69.03
20256;BME280;10286;59.364;18.016;2022-09-02T14:14:49;102073.78;;;15.92;68.33
20256;BME280;10286;59.364;18.016;2022-09-02T14:17:30;102080.75;;;15.83;71.26
20256;BME280;10286;59.364;18.016;2022-09-02T14:20:14;102076.84;;;15.87;70.11
20256;BME280;10286;59.364;18.016;2022-09-02T14:22:50;102077.22;;;15.83;67.90
20256;BME280;10286;59.364;18.016;2022-09-02T14:25:23;102075.28;;;15.85;68.19
20256;BME280;10286;59.364;18.016;2022-09-02T14:27:58;102067.81;;;15.79;67.82
20256;BME280;10286;59.364;18.016;2022-09-02T14:30:38;102072.16;;;15.80;69.56
20256;BME280;10286;59.364;18.016;2022-09-02T14:36:11;102074.56;;;15.83;72.35
20256;BME280;10286;59.364;18.016;2022-09-02T14:38:49;102074.28;;;16.06;72.19
20256;BME280;10286;59.364;18.016;2022-09-02T14:41:21;102071.38;;;15.89;70.29
20256;BME280;10286;59.364;18.016;2022-09-02T14:43:49;102070.41;;;15.69;69.29
20256;BME280;10286;59.364;18.016;2022-09-02T14:46:32;102068.78;;;15.57;70.86
20256;BME280;10286;59.364;18.016;2022-09-02T14:49:02;102066.88;;;15.48;70.94
20256;BME280;10286;59.364;18.016;2022-09-02T14:51:36;102063.69;;;15.34;71.84
20256;BME280;10286;59.364;18.016;2022-09-02T14:54:05;102066.88;;;15.48;71.78
20256;BME280;10286;59.364;18.016;2022-09-02T14:56:51;102074.41;;;15.43;72.21
20256;BME280;10286;59.364;18.016;2022-09-02T14:59:18;102071.19;;;15.60;72.13
20256;BME280;10286;59.364;18.016;2022-09-02T15:01:46;102076.97;;;16.57;68.00
20256;BME280;10286;59.364;18.016;2022-09-02T15:04:13;102076.47;;;16.82;67.42
20256;BME280;10286;59.364;18.016;2022-09-02T15:06:42;102066.00;;;16.30;67.64
20256;BME280;10286;59.364;18.016;2022-09-02T15:09:10;102066.41;;;16.05;67.80
20256;BME280;10286;59.364;18.016;2022-09-02T15:11:41;102065.63;;;16.34;69.06
20256;BME280;10286;59.364;18.016;2022-09-02T15:14:13;102072.06;;;16.62;68.60
20256;BME280;10286;59.364;18.016;2022-09-02T15:16:41;102075.91;;;15.98;67.33
20256;BME280;10286;59.364;18.016;2022-09-02T15:19:11;102069.84;;;15.66;70.32
20256;BME280;10286;59.364;18.016;2022-09-02T15:21:39;102065.84;;;15.60;71.68
20256;BME280;10286;59.364;18.016;2022-09-02T15:24:13;102070.16;;;15.41;69.62
20256;BME280;10286;59.364;18.016;2022-09-02T15:26:40;102067.56;;;15.30;71.46
20256;BME280;10286;59.364;18.016;2022-09-02T15:29:07;102079.31;;;15.17;71.88
20256;BME280;10286;59.364;18.016;2022-09-02T15:31:34;102070.38;;;15.07;72.46
20256;BME280;10286;59.364;18.016;2022-09-02T15:34:01;102075.25;;;15.02;72.88
20256;BME280;10286;59.364;18.016;2022-09-02T15:36:30;102075.50;;;14.99;74.16
20256;BME280;10286;59.364;18.016;2022-09-02T15:38:59;102075.03;;;14.94;77.76
20256;BME280;10286;59.364;18.016;2022-09-02T15:41:27;102074.09;;;15.15;79.58
20256;BME280;10286;59.364;18.016;2022-09-02T15:46:36;102070.13;;;15.72;80.91
20256;BME280;10286;59.364;18.016;2022-09-02T15:49:13;102064.75;;;15.83;81.40
20256;BME280;10286;59.364;18.016;2022-09-02T15:51:44;102065.41;;;15.96;81.72
20256;BME280;10286;59.364;18.016;2022-09-02T15:54:16;102064.69;;;16.45;80.10
20256;BME280;10286;59.364;18.016;2022-09-02T15:56:45;102057.34;;;16.67;74.78
20256;BME280;10286;59.364;18.016;2022-09-02T15:59:13;102061.91;;;16.46;71.93
20256;BME280;10286;59.364;18.016;2022-09-02T16:01:43;102064.41;;;16.18;71.96
20256;BME280;10286;59.364;18.016;2022-09-02T16:04:10;102055.78;;;15.84;73.32
20256;BME280;10286;59.364;18.016;2022-09-02T16:06:38;102054.34;;;15.60;73.96
20256;BME280;10286;59.364;18.016;2022-09-02T16:09:05;102054.47;;;15.38;75.48
20256;BME280;10286;59.364;18.016;2022-09-02T16:11:32;102045.31;;;15.20;75.94
20256;BME280;10286;59.364;18.016;2022-09-02T16:14:03;102052.38;;;15.10;76.97